THM YMEN-YWSL
Flight info
| Callsign | THM |
|---|---|
| Flight time | 0h 51m |
| Altitude | 3500 |
| Route | DSN GMH NRW YNNG DRN YLTV FYN |
| Aircraft | BE36/L-SDFG/C |
Departure
| Time | 2026-04-17 09:15 |
|---|---|
| Airport | Melbourne Essendon Airport (YMEN) |
Arrival
| Time | 2026-04-17 10:06 |
|---|---|
| Airport | West Sale Airport (YWSL) |
| Time | Latitude | Longitude | Altitude | Speed | Heading |
|---|---|---|---|---|---|
| 2026-04-17 08:17 | -37.72145 | 144.89883 | 281 ft | 0 kts | 266° |
| 2026-04-17 09:09 | -37.72145 | 144.89876 | 281 ft | 4 kts | 264° |
| 2026-04-17 09:09 | -37.72191 | 144.89848 | 280 ft | 10 kts | 225° |
| 2026-04-17 09:09 | -37.72214 | 144.89812 | 280 ft | 15 kts | 74° |
| 2026-04-17 09:10 | -37.72152 | 144.89932 | 281 ft | 8 kts | 355° |
| 2026-04-17 09:10 | -37.72069 | 144.89925 | 284 ft | 9 kts | 24° |
| 2026-04-17 09:10 | -37.72052 | 144.89978 | 285 ft | 0 kts | 88° |
| 2026-04-17 09:12 | -37.72051 | 144.90025 | 286 ft | 15 kts | 87° |
| 2026-04-17 09:13 | -37.72070 | 144.90077 | 287 ft | 0 kts | 176° |
| 2026-04-17 09:13 | -37.72071 | 144.90077 | 287 ft | 0 kts | 176° |
| 2026-04-17 09:14 | -37.72267 | 144.90084 | 276 ft | 66 kts | 179° |
| 2026-04-17 09:14 | -37.72876 | 144.90116 | 419 ft | 98 kts | 184° |
| 2026-04-17 09:14 | -37.73592 | 144.90070 | 751 ft | 110 kts | 191° |
| 2026-04-17 09:15 | -37.74364 | 144.89919 | 1152 ft | 118 kts | 194° |
| 2026-04-17 09:15 | -37.75180 | 144.90091 | 1541 ft | 131 kts | 154° |
| 2026-04-17 09:15 | -37.75898 | 144.91025 | 1425 ft | 163 kts | 121° |
| 2026-04-17 09:15 | -37.75987 | 144.92465 | 1442 ft | 175 kts | 81° |
| 2026-04-17 09:16 | -37.75695 | 144.93967 | 1523 ft | 178 kts | 80° |
| 2026-04-17 09:16 | -37.75514 | 144.95516 | 1568 ft | 177 kts | 92° |
| 2026-04-17 09:16 | -37.75585 | 144.97039 | 1632 ft | 174 kts | 105° |
| 2026-04-17 09:16 | -37.75828 | 144.98522 | 1682 ft | 174 kts | 109° |
| 2026-04-17 09:17 | -37.76143 | 145.00004 | 1750 ft | 172 kts | 105° |
| 2026-04-17 09:17 | -37.76072 | 145.01470 | 2099 ft | 169 kts | 78° |
| 2026-04-17 09:17 | -37.75699 | 145.02848 | 2437 ft | 164 kts | 77° |
| 2026-04-17 09:17 | -37.75384 | 145.04220 | 2537 ft | 170 kts | 79° |
| 2026-04-17 09:18 | -37.75157 | 145.05695 | 2586 ft | 168 kts | 99° |
| 2026-04-17 09:18 | -37.75596 | 145.06984 | 2707 ft | 156 kts | 131° |
| 2026-04-17 09:18 | -37.76206 | 145.08092 | 2798 ft | 155 kts | 131° |
| 2026-04-17 09:18 | -37.76848 | 145.09250 | 2761 ft | 163 kts | 128° |
| 2026-04-17 09:19 | -37.77454 | 145.10469 | 2707 ft | 168 kts | 129° |
| 2026-04-17 09:19 | -37.78079 | 145.11707 | 2710 ft | 167 kts | 129° |
| 2026-04-17 09:19 | -37.78702 | 145.12948 | 2709 ft | 168 kts | 125° |
| 2026-04-17 09:19 | -37.79192 | 145.14299 | 2706 ft | 169 kts | 118° |
| 2026-04-17 09:20 | -37.79647 | 145.15667 | 2707 ft | 168 kts | 118° |
| 2026-04-17 09:20 | -37.80103 | 145.17028 | 2707 ft | 168 kts | 119° |
| 2026-04-17 09:20 | -37.80566 | 145.18394 | 2669 ft | 170 kts | 119° |
| 2026-04-17 09:20 | -37.81040 | 145.19788 | 2574 ft | 174 kts | 121° |
| 2026-04-17 09:21 | -37.81763 | 145.20937 | 2529 ft | 163 kts | 149° |
| 2026-04-17 09:21 | -37.82783 | 145.21494 | 2524 ft | 159 kts | 166° |
| 2026-04-17 09:21 | -37.83841 | 145.21857 | 2522 ft | 155 kts | 176° |
| 2026-04-17 09:21 | -37.84903 | 145.21784 | 2522 ft | 153 kts | 188° |
| 2026-04-17 09:22 | -37.85964 | 145.21641 | 2521 ft | 153 kts | 188° |
| 2026-04-17 09:22 | -37.87023 | 145.21493 | 2525 ft | 154 kts | 188° |
| 2026-04-17 09:22 | -37.88084 | 145.21337 | 2528 ft | 153 kts | 188° |
| 2026-04-17 09:22 | -37.89139 | 145.21191 | 2525 ft | 152 kts | 188° |
| 2026-04-17 09:23 | -37.90194 | 145.21057 | 2529 ft | 153 kts | 187° |
| 2026-04-17 09:23 | -37.91249 | 145.20922 | 2526 ft | 152 kts | 188° |
| 2026-04-17 09:23 | -37.92288 | 145.20789 | 2523 ft | 149 kts | 188° |
| 2026-04-17 09:23 | -37.93309 | 145.20661 | 2518 ft | 147 kts | 188° |
| 2026-04-17 09:24 | -37.94323 | 145.20542 | 2509 ft | 146 kts | 188° |
| 2026-04-17 09:24 | -37.95332 | 145.20441 | 2515 ft | 146 kts | 180° |
| 2026-04-17 09:24 | -37.96321 | 145.20796 | 2515 ft | 150 kts | 160° |
| 2026-04-17 09:24 | -37.97263 | 145.21388 | 2522 ft | 152 kts | 158° |
| 2026-04-17 09:25 | -37.98203 | 145.22000 | 2516 ft | 152 kts | 158° |
| 2026-04-17 09:25 | -37.99148 | 145.22607 | 2516 ft | 152 kts | 158° |
| 2026-04-17 09:25 | -38.00092 | 145.23216 | 2517 ft | 152 kts | 158° |
| 2026-04-17 09:25 | -38.00965 | 145.23990 | 2513 ft | 156 kts | 141° |
| 2026-04-17 09:26 | -38.01530 | 145.25200 | 2510 ft | 162 kts | 120° |
| 2026-04-17 09:26 | -38.01861 | 145.26580 | 2512 ft | 167 kts | 104° |
| 2026-04-17 09:26 | -38.01954 | 145.28060 | 2511 ft | 169 kts | 99° |
| 2026-04-17 09:26 | -38.02022 | 145.29545 | 2506 ft | 169 kts | 99° |
| 2026-04-17 09:27 | -38.02096 | 145.31034 | 2512 ft | 170 kts | 99° |
| 2026-04-17 09:27 | -38.02173 | 145.32528 | 2511 ft | 170 kts | 99° |
| 2026-04-17 09:27 | -38.02250 | 145.34025 | 2512 ft | 170 kts | 99° |
| 2026-04-17 09:27 | -38.02334 | 145.35515 | 2510 ft | 169 kts | 99° |
| 2026-04-17 09:28 | -38.02409 | 145.36991 | 2471 ft | 173 kts | 99° |
| 2026-04-17 09:28 | -38.02488 | 145.38556 | 2368 ft | 177 kts | 99° |
| 2026-04-17 09:28 | -38.02578 | 145.40107 | 2270 ft | 179 kts | 102° |
| 2026-04-17 09:28 | -38.02795 | 145.41637 | 2173 ft | 175 kts | 107° |
| 2026-04-17 09:29 | -38.03038 | 145.43140 | 2073 ft | 173 kts | 107° |
| 2026-04-17 09:29 | -38.03285 | 145.44647 | 1960 ft | 174 kts | 106° |
| 2026-04-17 09:29 | -38.03528 | 145.46146 | 1871 ft | 174 kts | 106° |
| 2026-04-17 09:29 | -38.03785 | 145.47657 | 1764 ft | 175 kts | 107° |
| 2026-04-17 09:30 | -38.04046 | 145.49173 | 1663 ft | 176 kts | 107° |
| 2026-04-17 09:30 | -38.04315 | 145.50689 | 1563 ft | 177 kts | 107° |
| 2026-04-17 09:30 | -38.04641 | 145.52171 | 1504 ft | 174 kts | 116° |
| 2026-04-17 09:30 | -38.05275 | 145.53478 | 1348 ft | 173 kts | 134° |
| 2026-04-17 09:31 | -38.06026 | 145.54644 | 1299 ft | 171 kts | 122° |
| 2026-04-17 09:31 | -38.06553 | 145.56018 | 1197 ft | 170 kts | 120° |
| 2026-04-17 09:31 | -38.07106 | 145.57370 | 884 ft | 178 kts | 116° |
| 2026-04-17 09:31 | -38.07464 | 145.58800 | 975 ft | 162 kts | 92° |
| 2026-04-17 09:32 | -38.07038 | 145.59965 | 1239 ft | 147 kts | 30° |
| 2026-04-17 09:32 | -38.06102 | 145.60087 | 1330 ft | 142 kts | 323° |
| 2026-04-17 09:32 | -38.05733 | 145.59006 | 1058 ft | 151 kts | 270° |
| 2026-04-17 09:32 | -38.05660 | 145.57665 | 1006 ft | 150 kts | 278° |
| 2026-04-17 09:33 | -38.05424 | 145.56422 | 1033 ft | 135 kts | 283° |
| 2026-04-17 09:33 | -38.05197 | 145.55355 | 1001 ft | 118 kts | 276° |
| 2026-04-17 09:33 | -38.05546 | 145.54650 | 1049 ft | 104 kts | 188° |
| 2026-04-17 09:33 | -38.06089 | 145.55206 | 746 ft | 125 kts | 101° |
| 2026-04-17 09:34 | -38.06329 | 145.56192 | 527 ft | 105 kts | 114° |
| 2026-04-17 09:34 | -38.06578 | 145.57011 | 289 ft | 95 kts | 112° |
| 2026-04-17 09:34 | -38.06779 | 145.57678 | 162 ft | 69 kts | 106° |
| 2026-04-17 09:34 | -38.06984 | 145.58427 | 319 ft | 98 kts | 114° |
| 2026-04-17 09:35 | -38.07170 | 145.58971 | 555 ft | 104 kts | 121° |
| 2026-04-17 09:35 | -38.07680 | 145.60134 | 984 ft | 120 kts | 121° |
| 2026-04-17 09:35 | -38.07947 | 145.60745 | 1308 ft | 118 kts | 125° |
| 2026-04-17 09:35 | -38.08358 | 145.61626 | 1838 ft | 113 kts | 129° |
| 2026-04-17 09:36 | -38.08799 | 145.62465 | 2225 ft | 116 kts | 132° |
| 2026-04-17 09:36 | -38.09229 | 145.63372 | 2500 ft | 128 kts | 119° |
| 2026-04-17 09:36 | -38.09367 | 145.64519 | 2788 ft | 137 kts | 99° |
| 2026-04-17 09:36 | -38.09429 | 145.65827 | 2807 ft | 160 kts | 98° |
| 2026-04-17 09:37 | -38.09495 | 145.67287 | 2812 ft | 169 kts | 98° |
| 2026-04-17 09:37 | -38.09565 | 145.68783 | 2806 ft | 171 kts | 98° |
| 2026-04-17 09:37 | -38.09637 | 145.70298 | 2801 ft | 172 kts | 98° |
| 2026-04-17 09:37 | -38.09711 | 145.71811 | 2758 ft | 174 kts | 98° |
| 2026-04-17 09:38 | -38.09854 | 145.73345 | 2660 ft | 174 kts | 112° |
| 2026-04-17 09:38 | -38.10243 | 145.74806 | 2558 ft | 177 kts | 111° |
| 2026-04-17 09:38 | -38.10573 | 145.76303 | 2522 ft | 173 kts | 113° |
| 2026-04-17 09:38 | -38.10999 | 145.77713 | 2521 ft | 170 kts | 117° |
| 2026-04-17 09:39 | -38.11435 | 145.79085 | 2522 ft | 170 kts | 117° |
| 2026-04-17 09:39 | -38.11880 | 145.80489 | 2518 ft | 169 kts | 117° |
| 2026-04-17 09:39 | -38.12309 | 145.81852 | 2521 ft | 169 kts | 117° |
| 2026-04-17 09:39 | -38.12748 | 145.83238 | 2525 ft | 169 kts | 117° |
| 2026-04-17 09:40 | -38.13189 | 145.84631 | 2516 ft | 171 kts | 119° |
| 2026-04-17 09:40 | -38.13799 | 145.85900 | 2513 ft | 167 kts | 131° |
| 2026-04-17 09:40 | -38.14468 | 145.87096 | 2513 ft | 164 kts | 131° |
| 2026-04-17 09:40 | -38.15130 | 145.88281 | 2517 ft | 164 kts | 131° |
| 2026-04-17 09:41 | -38.15795 | 145.89471 | 2516 ft | 166 kts | 131° |
| 2026-04-17 09:41 | -38.16255 | 145.90832 | 2511 ft | 172 kts | 109° |
| 2026-04-17 09:41 | -38.16526 | 145.92315 | 2515 ft | 173 kts | 108° |
| 2026-04-17 09:41 | -38.16801 | 145.93796 | 2515 ft | 172 kts | 108° |
| 2026-04-17 09:42 | -38.17076 | 145.95277 | 2509 ft | 172 kts | 108° |
| 2026-04-17 09:42 | -38.17348 | 145.96754 | 2513 ft | 172 kts | 109° |
| 2026-04-17 09:42 | -38.17613 | 145.98250 | 2508 ft | 174 kts | 108° |
| 2026-04-17 09:42 | -38.17878 | 145.99749 | 2509 ft | 174 kts | 108° |
| 2026-04-17 09:43 | -38.18142 | 146.01253 | 2511 ft | 174 kts | 108° |
| 2026-04-17 09:43 | -38.18409 | 146.02759 | 2511 ft | 175 kts | 108° |
| 2026-04-17 09:43 | -38.18677 | 146.04261 | 2511 ft | 174 kts | 108° |
| 2026-04-17 09:43 | -38.18944 | 146.05767 | 2504 ft | 175 kts | 105° |
| 2026-04-17 09:44 | -38.18950 | 146.07327 | 2504 ft | 178 kts | 90° |
| 2026-04-17 09:44 | -38.18868 | 146.08890 | 2511 ft | 178 kts | 91° |
| 2026-04-17 09:44 | -38.18828 | 146.10461 | 2505 ft | 177 kts | 94° |
| 2026-04-17 09:44 | -38.18825 | 146.12025 | 2502 ft | 177 kts | 94° |
| 2026-04-17 09:45 | -38.18824 | 146.13588 | 2511 ft | 177 kts | 95° |
| 2026-04-17 09:45 | -38.18807 | 146.15149 | 2511 ft | 177 kts | 91° |
| 2026-04-17 09:45 | -38.18748 | 146.16712 | 2513 ft | 177 kts | 91° |
| 2026-04-17 09:45 | -38.18682 | 146.18282 | 2504 ft | 177 kts | 92° |
| 2026-04-17 09:46 | -38.18619 | 146.19847 | 2514 ft | 178 kts | 91° |
| 2026-04-17 09:46 | -38.18587 | 146.21412 | 2511 ft | 177 kts | 96° |
| 2026-04-17 09:46 | -38.18656 | 146.22975 | 2512 ft | 177 kts | 98° |
| 2026-04-17 09:46 | -38.18735 | 146.24544 | 2515 ft | 178 kts | 98° |
| 2026-04-17 09:47 | -38.18819 | 146.26120 | 2512 ft | 179 kts | 98° |
| 2026-04-17 09:47 | -38.18901 | 146.27690 | 2511 ft | 178 kts | 98° |
| 2026-04-17 09:47 | -38.18976 | 146.29265 | 2511 ft | 179 kts | 98° |
| 2026-04-17 09:47 | -38.19052 | 146.30837 | 2514 ft | 178 kts | 100° |
| 2026-04-17 09:48 | -38.19194 | 146.32396 | 2517 ft | 177 kts | 102° |
| 2026-04-17 09:48 | -38.19383 | 146.33940 | 2508 ft | 176 kts | 104° |
| 2026-04-17 09:48 | -38.19583 | 146.35480 | 2508 ft | 177 kts | 104° |
| 2026-04-17 09:48 | -38.19786 | 146.37023 | 2511 ft | 177 kts | 105° |
| 2026-04-17 09:49 | -38.19987 | 146.38578 | 2502 ft | 178 kts | 105° |
| 2026-04-17 09:49 | -38.20192 | 146.40125 | 2509 ft | 179 kts | 104° |
| 2026-04-17 09:49 | -38.20497 | 146.41697 | 2229 ft | 188 kts | 119° |
| 2026-04-17 09:49 | -38.21158 | 146.43118 | 1911 ft | 185 kts | 131° |
| 2026-04-17 09:50 | -38.21875 | 146.44450 | 1684 ft | 182 kts | 129° |
| 2026-04-17 09:50 | -38.22592 | 146.45717 | 1553 ft | 178 kts | 134° |
| 2026-04-17 09:50 | -38.23355 | 146.46926 | 1440 ft | 171 kts | 124° |
| 2026-04-17 09:50 | -38.23496 | 146.48319 | 1580 ft | 160 kts | 68° |
| 2026-04-17 09:51 | -38.22694 | 146.49384 | 1372 ft | 169 kts | 39° |
| 2026-04-17 09:51 | -38.21874 | 146.50426 | 1333 ft | 164 kts | 45° |
| 2026-04-17 09:51 | -38.21145 | 146.51439 | 1387 ft | 149 kts | 46° |
| 2026-04-17 09:51 | -38.20379 | 146.52156 | 1403 ft | 126 kts | 3° |
| 2026-04-17 09:52 | -38.19666 | 146.51828 | 1330 ft | 105 kts | 303° |
| 2026-04-17 09:52 | -38.19266 | 146.51065 | 1277 ft | 103 kts | 296° |
| 2026-04-17 09:52 | -38.18933 | 146.50256 | 1187 ft | 102 kts | 272° |
| 2026-04-17 09:52 | -38.19223 | 146.49489 | 884 ft | 95 kts | 229° |
| 2026-04-17 09:53 | -38.19664 | 146.48928 | 676 ft | 84 kts | 227° |
| 2026-04-17 09:53 | -38.20074 | 146.48385 | 438 ft | 85 kts | 229° |
| 2026-04-17 09:53 | -38.20475 | 146.47881 | 296 ft | 78 kts | 230° |
| 2026-04-17 09:53 | -38.20829 | 146.47423 | 202 ft | 59 kts | 226° |
| 2026-04-17 09:54 | -38.21178 | 146.46989 | 236 ft | 90 kts | 227° |
| 2026-04-17 09:54 | -38.21645 | 146.46422 | 617 ft | 92 kts | 230° |
| 2026-04-17 09:54 | -38.22168 | 146.45847 | 886 ft | 110 kts | 210° |
| 2026-04-17 09:54 | -38.22988 | 146.45729 | 1149 ft | 127 kts | 171° |
| 2026-04-17 09:55 | -38.23761 | 146.46349 | 1450 ft | 138 kts | 131° |
| 2026-04-17 09:55 | -38.23989 | 146.47515 | 1762 ft | 142 kts | 92° |
| 2026-04-17 09:55 | -38.23809 | 146.48755 | 1987 ft | 144 kts | 81° |
| 2026-04-17 09:55 | -38.23608 | 146.49975 | 2291 ft | 137 kts | 83° |
| 2026-04-17 09:56 | -38.23554 | 146.51244 | 2284 ft | 157 kts | 98° |
| 2026-04-17 09:56 | -38.23490 | 146.52680 | 2344 ft | 161 kts | 89° |
| 2026-04-17 09:56 | -38.23320 | 146.54060 | 2498 ft | 161 kts | 75° |
| 2026-04-17 09:56 | -38.22917 | 146.55443 | 2499 ft | 171 kts | 73° |
| 2026-04-17 09:57 | -38.22503 | 146.56852 | 2501 ft | 168 kts | 72° |
| 2026-04-17 09:57 | -38.22093 | 146.58239 | 2498 ft | 167 kts | 72° |
| 2026-04-17 09:57 | -38.21700 | 146.59618 | 2493 ft | 164 kts | 73° |
| 2026-04-17 09:57 | -38.21301 | 146.60979 | 2501 ft | 164 kts | 72° |
| 2026-04-17 09:58 | -38.20900 | 146.62334 | 2493 ft | 162 kts | 72° |
| 2026-04-17 09:58 | -38.20505 | 146.63691 | 2485 ft | 163 kts | 73° |
| 2026-04-17 09:58 | -38.20137 | 146.65060 | 2492 ft | 164 kts | 76° |
| 2026-04-17 09:58 | -38.19743 | 146.66430 | 2497 ft | 167 kts | 70° |
| 2026-04-17 09:59 | -38.19291 | 146.67796 | 2498 ft | 168 kts | 69° |
| 2026-04-17 09:59 | -38.18839 | 146.69166 | 2498 ft | 167 kts | 70° |
| 2026-04-17 09:59 | -38.18397 | 146.70532 | 2494 ft | 168 kts | 70° |
| 2026-04-17 09:59 | -38.17942 | 146.71875 | 2496 ft | 167 kts | 69° |
| 2026-04-17 10:00 | -38.17472 | 146.73246 | 2486 ft | 167 kts | 69° |
| 2026-04-17 10:00 | -38.17028 | 146.74600 | 2487 ft | 165 kts | 70° |
| 2026-04-17 10:00 | -38.16581 | 146.75948 | 2494 ft | 167 kts | 70° |
| 2026-04-17 10:00 | -38.16122 | 146.77311 | 2491 ft | 168 kts | 69° |
| 2026-04-17 10:01 | -38.15682 | 146.78653 | 2496 ft | 166 kts | 70° |
| 2026-04-17 10:01 | -38.15188 | 146.79991 | 2497 ft | 169 kts | 63° |
| 2026-04-17 10:01 | -38.14617 | 146.81302 | 2483 ft | 168 kts | 63° |
| 2026-04-17 10:01 | -38.14058 | 146.82605 | 2486 ft | 167 kts | 62° |
| 2026-04-17 10:02 | -38.13581 | 146.83944 | 2489 ft | 166 kts | 72° |
| 2026-04-17 10:02 | -38.13164 | 146.85316 | 2486 ft | 165 kts | 72° |
| 2026-04-17 10:02 | -38.12739 | 146.86679 | 2492 ft | 168 kts | 66° |
| 2026-04-17 10:02 | -38.12241 | 146.88009 | 2491 ft | 166 kts | 66° |
| 2026-04-17 10:03 | -38.11785 | 146.89363 | 2477 ft | 166 kts | 70° |
| 2026-04-17 10:03 | -38.11353 | 146.90751 | 2408 ft | 171 kts | 72° |
| 2026-04-17 10:03 | -38.10966 | 146.92214 | 2190 ft | 179 kts | 75° |
| 2026-04-17 10:03 | -38.10599 | 146.93783 | 1720 ft | 186 kts | 76° |
| 2026-04-17 10:04 | -38.10289 | 146.95335 | 1282 ft | 175 kts | 86° |
| 2026-04-17 10:04 | -38.10395 | 146.96782 | 1088 ft | 155 kts | 105° |
| 2026-04-17 10:04 | -38.10607 | 146.98038 | 1043 ft | 138 kts | 106° |
| 2026-04-17 10:04 | -38.10795 | 146.99193 | 962 ft | 132 kts | 103° |
| 2026-04-17 10:05 | -38.10704 | 147.00279 | 956 ft | 122 kts | 45° |
| 2026-04-17 10:05 | -38.09963 | 147.00605 | 846 ft | 115 kts | 345° |
| 2026-04-17 10:05 | -38.09464 | 146.99994 | 679 ft | 105 kts | 274° |
| 2026-04-17 10:05 | -38.09417 | 146.99161 | 501 ft | 87 kts | 275° |
| 2026-04-17 10:06 | -38.09327 | 146.98421 | 309 ft | 84 kts | 277° |
| 2026-04-17 10:06 | -38.09237 | 146.97714 | 153 ft | 77 kts | 278° |
| 2026-04-17 10:06 | -38.09162 | 146.97110 | 72 ft | 53 kts | 277° |
| 2026-04-17 10:06 | -38.09131 | 146.96884 | 72 ft | 13 kts | 265° |
| 2026-04-17 10:07 | -38.09129 | 146.96796 | 75 ft | 6 kts | 239° |
| 2026-04-17 10:07 | -38.09198 | 146.96776 | 76 ft | 9 kts | 160° |
| 2026-04-17 10:07 | -38.09226 | 146.96858 | 75 ft | 13 kts | 101° |
| 2026-04-17 10:07 | -38.09241 | 146.96966 | 73 ft | 12 kts | 99° |
| 2026-04-17 10:08 | -38.09251 | 146.97059 | 72 ft | 10 kts | 97° |
| 2026-04-17 10:08 | -38.09279 | 146.97110 | 76 ft | 8 kts | 194° |
| 2026-04-17 10:08 | -38.09309 | 146.97121 | 71 ft | 5 kts | 94° |
| 2026-04-17 10:08 | -38.09321 | 146.97135 | 73 ft | 0 kts | 189° |